Terminal Aerodrome Forecast
Issued by NWS Cleveland, OH

Home | Current Version | Previous Version | Graphics & Text | Print | Product List | Glossary On
Versions: 1 2 3 4 5 6 7 8 9 10 11 12 13 14 15 16 17 18 19 20 21 22
000
FTUS41 KCLE 012100 AAA
TAFCAK
TAF AMD
KCAK 012150Z 0122/0218 20007KT 1 1/2SM -SN BKN008 OVC012
      TEMPO 0122/0124 3SM -SN OVC012
     FM020000 28006KT 4SM -SN OVC015
     FM020300 28008KT 6SM -SHSN OVC025
     FM021400 28010KT P6SM BKN020=

USA.gov is the U.S. government's official web portal to all federal, state and local government web resources and services.